sensor_id;sensor_type;location;lat;lon;timestamp;P1;durP1;ratioP1;P2;durP2;ratioP2
3054;SDS011;1537;52.018;8.542;2023-07-28T00:00:19;10.87;;;8.67;;
3054;SDS011;1537;52.018;8.542;2023-07-28T00:03:43;11.83;;;9.23;;
3054;SDS011;1537;52.018;8.542;2023-07-28T00:07:07;8.20;;;7.23;;
3054;SDS011;1537;52.018;8.542;2023-07-28T00:10:30;8.90;;;7.50;;
3054;SDS011;1537;52.018;8.542;2023-07-28T00:13:54;7.70;;;6.70;;
3054;SDS011;1537;52.018;8.542;2023-07-28T00:17:19;7.93;;;6.50;;
3054;SDS011;1537;52.018;8.542;2023-07-28T00:20:43;8.20;;;7.33;;
3054;SDS011;1537;52.018;8.542;2023-07-28T00:24:06;8.67;;;7.77;;
3054;SDS011;1537;52.018;8.542;2023-07-28T00:27:30;8.23;;;7.20;;
3054;SDS011;1537;52.018;8.542;2023-07-28T00:30:54;9.03;;;7.23;;
3054;SDS011;1537;52.018;8.542;2023-07-28T00:34:20;8.93;;;8.03;;
3054;SDS011;1537;52.018;8.542;2023-07-28T00:37:43;10.73;;;8.90;;
3054;SDS011;1537;52.018;8.542;2023-07-28T00:41:07;9.83;;;8.80;;
3054;SDS011;1537;52.018;8.542;2023-07-28T00:44:31;11.57;;;8.93;;
3054;SDS011;1537;52.018;8.542;2023-07-28T00:47:54;12.80;;;9.50;;
3054;SDS011;1537;52.018;8.542;2023-07-28T00:51:21;9.80;;;8.30;;
3054;SDS011;1537;52.018;8.542;2023-07-28T00:54:45;11.17;;;9.87;;
3054;SDS011;1537;52.018;8.542;2023-07-28T00:58:08;11.87;;;10.10;;
3054;SDS011;1537;52.018;8.542;2023-07-28T01:01:32;11.27;;;10.10;;
3054;SDS011;1537;52.018;8.542;2023-07-28T01:04:56;10.57;;;9.47;;
3054;SDS011;1537;52.018;8.542;2023-07-28T01:08:26;11.50;;;10.10;;
3054;SDS011;1537;52.018;8.542;2023-07-28T01:11:55;11.17;;;9.23;;
3054;SDS011;1537;52.018;8.542;2023-07-28T01:15:19;12.20;;;10.50;;
3054;SDS011;1537;52.018;8.542;2023-07-28T01:18:43;12.00;;;10.80;;
3054;SDS011;1537;52.018;8.542;2023-07-28T01:22:12;11.80;;;10.60;;
3054;SDS011;1537;52.018;8.542;2023-07-28T01:25:55;12.77;;;11.47;;
3054;SDS011;1537;52.018;8.542;2023-07-28T01:29:27;14.53;;;13.03;;
3054;SDS011;1537;52.018;8.542;2023-07-28T01:32:53;12.40;;;11.20;;
3054;SDS011;1537;52.018;8.542;2023-07-28T01:36:17;14.03;;;12.53;;
3054;SDS011;1537;52.018;8.542;2023-07-28T01:39:41;15.83;;;13.40;;
3054;SDS011;1537;52.018;8.542;2023-07-28T01:43:05;14.60;;;13.20;;
3054;SDS011;1537;52.018;8.542;2023-07-28T01:46:30;13.60;;;11.53;;
3054;SDS011;1537;52.018;8.542;2023-07-28T01:49:55;13.27;;;11.87;;
3054;SDS011;1537;52.018;8.542;2023-07-28T01:53:18;14.30;;;12.80;;
3054;SDS011;1537;52.018;8.542;2023-07-28T01:56:42;14.00;;;12.47;;
3054;SDS011;1537;52.018;8.542;2023-07-28T02:00:06;14.33;;;12.83;;
3054;SDS011;1537;52.018;8.542;2023-07-28T02:03:37;15.17;;;13.57;;
3054;SDS011;1537;52.018;8.542;2023-07-28T02:07:01;12.13;;;10.90;;
3054;SDS011;1537;52.018;8.542;2023-07-28T02:10:25;11.73;;;10.53;;
3054;SDS011;1537;52.018;8.542;2023-07-28T02:13:50;11.67;;;10.47;;
3054;SDS011;1537;52.018;8.542;2023-07-28T02:17:13;12.00;;;10.60;;
3054;SDS011;1537;52.018;8.542;2023-07-28T02:20:38;13.73;;;10.80;;
3054;SDS011;1537;52.018;8.542;2023-07-28T02:24:03;12.33;;;10.80;;
3054;SDS011;1537;52.018;8.542;2023-07-28T02:27:27;11.87;;;10.40;;
3054;SDS011;1537;52.018;8.542;2023-07-28T02:30:51;12.50;;;9.77;;
3054;SDS011;1537;52.018;8.542;2023-07-28T02:34:14;10.87;;;9.77;;
3054;SDS011;1537;52.018;8.542;2023-07-28T02:37:39;11.80;;;10.60;;
3054;SDS011;1537;52.018;8.542;2023-07-28T02:41:04;10.43;;;9.37;;
3054;SDS011;1537;52.018;8.542;2023-07-28T02:44:29;12.67;;;11.37;;
3054;SDS011;1537;52.018;8.542;2023-07-28T02:47:52;12.30;;;10.70;;
3054;SDS011;1537;52.018;8.542;2023-07-28T02:51:18;13.20;;;11.43;;
3054;SDS011;1537;52.018;8.542;2023-07-28T02:54:43;16.43;;;12.50;;
3054;SDS011;1537;52.018;8.542;2023-07-28T02:58:06;13.73;;;12.33;;
3054;SDS011;1537;52.018;8.542;2023-07-28T03:01:30;13.60;;;10.87;;
3054;SDS011;1537;52.018;8.542;2023-07-28T03:04:55;13.33;;;10.70;;
3054;SDS011;1537;52.018;8.542;2023-07-28T03:08:18;11.57;;;9.97;;
3054;SDS011;1537;52.018;8.542;2023-07-28T03:11:44;11.27;;;10.17;;
3054;SDS011;1537;52.018;8.542;2023-07-28T03:15:08;11.50;;;10.30;;
3054;SDS011;1537;52.018;8.542;2023-07-28T03:18:32;14.90;;;11.20;;
3054;SDS011;1537;52.018;8.542;2023-07-28T03:21:55;12.03;;;10.60;;
3054;SDS011;1537;52.018;8.542;2023-07-28T03:25:19;12.90;;;11.17;;
3054;SDS011;1537;52.018;8.542;2023-07-28T03:28:44;12.60;;;10.70;;
3054;SDS011;1537;52.018;8.542;2023-07-28T03:32:08;11.50;;;10.33;;
3054;SDS011;1537;52.018;8.542;2023-07-28T03:35:31;12.07;;;9.57;;
3054;SDS011;1537;52.018;8.542;2023-07-28T03:39:01;11.33;;;10.20;;
3054;SDS011;1537;52.018;8.542;2023-07-28T03:42:25;10.90;;;9.07;;
3054;SDS011;1537;52.018;8.542;2023-07-28T03:45:50;16.27;;;10.63;;
3054;SDS011;1537;52.018;8.542;2023-07-28T03:49:14;16.20;;;11.73;;
3054;SDS011;1537;52.018;8.542;2023-07-28T03:52:38;14.27;;;12.77;;
3054;SDS011;1537;52.018;8.542;2023-07-28T03:56:02;14.40;;;12.23;;
3054;SDS011;1537;52.018;8.542;2023-07-28T03:59:26;13.27;;;11.53;;
3054;SDS011;1537;52.018;8.542;2023-07-28T04:02:51;16.20;;;13.20;;
3054;SDS011;1537;52.018;8.542;2023-07-28T04:06:15;17.80;;;12.80;;
3054;SDS011;1537;52.018;8.542;2023-07-28T04:09:38;14.90;;;12.70;;
3054;SDS011;1537;52.018;8.542;2023-07-28T04:13:02;14.70;;;12.83;;
3054;SDS011;1537;52.018;8.542;2023-07-28T04:16:26;16.47;;;14.00;;
3054;SDS011;1537;52.018;8.542;2023-07-28T04:19:51;15.07;;;13.50;;
3054;SDS011;1537;52.018;8.542;2023-07-28T04:23:14;17.50;;;13.23;;
3054;SDS011;1537;52.018;8.542;2023-07-28T04:26:38;17.00;;;15.10;;
3054;SDS011;1537;52.018;8.542;2023-07-28T04:30:05;18.20;;;15.83;;
3054;SDS011;1537;52.018;8.542;2023-07-28T04:33:29;17.20;;;15.30;;
3054;SDS011;1537;52.018;8.542;2023-07-28T04:36:54;16.13;;;13.73;;
3054;SDS011;1537;52.018;8.542;2023-07-28T04:40:20;18.37;;;15.70;;
3054;SDS011;1537;52.018;8.542;2023-07-28T04:43:44;19.90;;;15.63;;
3054;SDS011;1537;52.018;8.542;2023-07-28T04:47:07;15.70;;;14.00;;
3054;SDS011;1537;52.018;8.542;2023-07-28T04:50:31;16.30;;;14.47;;
3054;SDS011;1537;52.018;8.542;2023-07-28T04:54:20;14.97;;;13.37;;
3054;SDS011;1537;52.018;8.542;2023-07-28T04:57:43;17.17;;;14.83;;
3054;SDS011;1537;52.018;8.542;2023-07-28T05:01:07;15.93;;;14.23;;
3054;SDS011;1537;52.018;8.542;2023-07-28T05:04:33;15.50;;;13.90;;
3054;SDS011;1537;52.018;8.542;2023-07-28T05:07:58;17.73;;;15.20;;
3054;SDS011;1537;52.018;8.542;2023-07-28T05:11:23;17.07;;;13.87;;
3054;SDS011;1537;52.018;8.542;2023-07-28T05:14:47;15.00;;;12.90;;
3054;SDS011;1537;52.018;8.542;2023-07-28T05:18:14;14.30;;;12.90;;
3054;SDS011;1537;52.018;8.542;2023-07-28T05:21:59;16.30;;;14.60;;
3054;SDS011;1537;52.018;8.542;2023-07-28T05:25:40;15.97;;;14.30;;
3054;SDS011;1537;52.018;8.542;2023-07-28T05:29:05;16.00;;;13.03;;
3054;SDS011;1537;52.018;8.542;2023-07-28T05:32:28;14.80;;;13.30;;
3054;SDS011;1537;52.018;8.542;2023-07-28T05:36:03;20.23;;;15.70;;
3054;SDS011;1537;52.018;8.542;2023-07-28T05:39:28;16.70;;;12.97;;
3054;SDS011;1537;52.018;8.542;2023-07-28T05:42:52;16.50;;;14.77;;
3054;SDS011;1537;52.018;8.542;2023-07-28T05:46:17;15.03;;;13.20;;
3054;SDS011;1537;52.018;8.542;2023-07-28T05:49:41;18.13;;;15.20;;
3054;SDS011;1537;52.018;8.542;2023-07-28T05:53:05;16.73;;;14.70;;
3054;SDS011;1537;52.018;8.542;2023-07-28T05:56:29;16.00;;;14.27;;
3054;SDS011;1537;52.018;8.542;2023-07-28T05:59:53;16.57;;;14.77;;
3054;SDS011;1537;52.018;8.542;2023-07-28T06:03:18;17.53;;;15.63;;
3054;SDS011;1537;52.018;8.542;2023-07-28T06:07:00;16.90;;;14.97;;
3054;SDS011;1537;52.018;8.542;2023-07-28T06:10:25;16.10;;;14.27;;
3054;SDS011;1537;52.018;8.542;2023-07-28T06:13:48;17.40;;;15.50;;
3054;SDS011;1537;52.018;8.542;2023-07-28T06:17:12;18.67;;;16.70;;
3054;SDS011;1537;52.018;8.542;2023-07-28T06:20:37;16.83;;;15.13;;
3054;SDS011;1537;52.018;8.542;2023-07-28T06:24:04;18.60;;;16.53;;
3054;SDS011;1537;52.018;8.542;2023-07-28T06:27:28;22.70;;;16.87;;
3054;SDS011;1537;52.018;8.542;2023-07-28T06:30:53;20.73;;;15.97;;
3054;SDS011;1537;52.018;8.542;2023-07-28T06:34:19;17.17;;;15.33;;
3054;SDS011;1537;52.018;8.542;2023-07-28T06:37:44;17.57;;;15.67;;
3054;SDS011;1537;52.018;8.542;2023-07-28T06:41:07;19.53;;;17.00;;
3054;SDS011;1537;52.018;8.542;2023-07-28T06:44:31;21.70;;;17.83;;
3054;SDS011;1537;52.018;8.542;2023-07-28T06:47:55;20.47;;;17.43;;
3054;SDS011;1537;52.018;8.542;2023-07-28T06:51:18;19.23;;;15.60;;
3054;SDS011;1537;52.018;8.542;2023-07-28T06:54:43;18.20;;;16.20;;
3054;SDS011;1537;52.018;8.542;2023-07-28T06:58:09;17.87;;;14.80;;
3054;SDS011;1537;52.018;8.542;2023-07-28T07:01:33;17.33;;;15.53;;
3054;SDS011;1537;52.018;8.542;2023-07-28T07:04:57;18.00;;;15.23;;
3054;SDS011;1537;52.018;8.542;2023-07-28T07:08:21;16.73;;;14.73;;
3054;SDS011;1537;52.018;8.542;2023-07-28T07:11:46;18.70;;;14.77;;
3054;SDS011;1537;52.018;8.542;2023-07-28T07:15:10;17.20;;;14.07;;
3054;SDS011;1537;52.018;8.542;2023-07-28T07:18:34;13.73;;;12.30;;
3054;SDS011;1537;52.018;8.542;2023-07-28T07:21:58;17.07;;;12.47;;
3054;SDS011;1537;52.018;8.542;2023-07-28T07:25:21;14.70;;;11.60;;
3054;SDS011;1537;52.018;8.542;2023-07-28T07:28:46;15.00;;;12.23;;
3054;SDS011;1537;52.018;8.542;2023-07-28T07:32:10;12.07;;;10.50;;
3054;SDS011;1537;52.018;8.542;2023-07-28T07:35:35;12.83;;;11.43;;
3054;SDS011;1537;52.018;8.542;2023-07-28T07:39:00;14.53;;;12.50;;
3054;SDS011;1537;52.018;8.542;2023-07-28T07:42:23;15.50;;;12.30;;
3054;SDS011;1537;52.018;8.542;2023-07-28T07:45:48;15.33;;;13.17;;
3054;SDS011;1537;52.018;8.542;2023-07-28T07:49:14;12.27;;;11.00;;
3054;SDS011;1537;52.018;8.542;2023-07-28T07:52:38;13.80;;;10.67;;
3054;SDS011;1537;52.018;8.542;2023-07-28T07:56:03;16.70;;;11.87;;
3054;SDS011;1537;52.018;8.542;2023-07-28T07:59:27;13.93;;;12.40;;
3054;SDS011;1537;52.018;8.542;2023-07-28T08:02:58;13.77;;;10.43;;
3054;SDS011;1537;52.018;8.542;2023-07-28T08:06:22;11.07;;;9.73;;
3054;SDS011;1537;52.018;8.542;2023-07-28T08:09:45;9.70;;;8.67;;
3054;SDS011;1537;52.018;8.542;2023-07-28T08:13:09;10.43;;;7.03;;
3054;SDS011;1537;52.018;8.542;2023-07-28T08:16:33;8.60;;;7.20;;
3054;SDS011;1537;52.018;8.542;2023-07-28T08:19:58;11.40;;;7.53;;
3054;SDS011;1537;52.018;8.542;2023-07-28T08:23:21;8.00;;;6.80;;
3054;SDS011;1537;52.018;8.542;2023-07-28T08:26:45;8.40;;;7.27;;
3054;SDS011;1537;52.018;8.542;2023-07-28T08:30:09;7.13;;;6.43;;
3054;SDS011;1537;52.018;8.542;2023-07-28T08:33:34;8.40;;;7.27;;
3054;SDS011;1537;52.018;8.542;2023-07-28T08:36:59;7.43;;;6.73;;
3054;SDS011;1537;52.018;8.542;2023-07-28T08:40:22;9.10;;;7.80;;
3054;SDS011;1537;52.018;8.542;2023-07-28T08:43:49;7.97;;;7.17;;
3054;SDS011;1537;52.018;8.542;2023-07-28T08:47:14;7.60;;;6.80;;
3054;SDS011;1537;52.018;8.542;2023-07-28T08:50:37;8.27;;;6.73;;
3054;SDS011;1537;52.018;8.542;2023-07-28T08:54:03;8.33;;;7.53;;
3054;SDS011;1537;52.018;8.542;2023-07-28T08:57:27;9.10;;;7.30;;
3054;SDS011;1537;52.018;8.542;2023-07-28T09:00:51;8.50;;;7.00;;
3054;SDS011;1537;52.018;8.542;2023-07-28T09:04:15;7.93;;;7.13;;
3054;SDS011;1537;52.018;8.542;2023-07-28T09:07:39;9.80;;;7.97;;
3054;SDS011;1537;52.018;8.542;2023-07-28T09:11:06;8.47;;;7.57;;
3054;SDS011;1537;52.018;8.542;2023-07-28T09:14:30;10.40;;;8.30;;
3054;SDS011;1537;52.018;8.542;2023-07-28T09:17:54;7.93;;;6.90;;
3054;SDS011;1537;52.018;8.542;2023-07-28T09:21:18;8.70;;;7.33;;
3054;SDS011;1537;52.018;8.542;2023-07-28T09:24:43;9.80;;;7.30;;
3054;SDS011;1537;52.018;8.542;2023-07-28T09:28:08;8.73;;;7.40;;
3054;SDS011;1537;52.018;8.542;2023-07-28T09:31:33;7.63;;;6.83;;
3054;SDS011;1537;52.018;8.542;2023-07-28T09:35:10;8.30;;;7.33;;
3054;SDS011;1537;52.018;8.542;2023-07-28T09:38:36;8.53;;;7.63;;
3054;SDS011;1537;52.018;8.542;2023-07-28T09:42:01;8.30;;;7.10;;
3054;SDS011;1537;52.018;8.542;2023-07-28T09:45:27;9.00;;;7.20;;
3054;SDS011;1537;52.018;8.542;2023-07-28T09:48:59;7.17;;;6.40;;
3054;SDS011;1537;52.018;8.542;2023-07-28T09:52:27;8.00;;;7.20;;
3054;SDS011;1537;52.018;8.542;2023-07-28T09:55:56;8.13;;;6.70;;
3054;SDS011;1537;52.018;8.542;2023-07-28T09:59:21;7.80;;;6.90;;
3054;SDS011;1537;52.018;8.542;2023-07-28T10:02:52;9.03;;;8.13;;
3054;SDS011;1537;52.018;8.542;2023-07-28T10:06:16;11.07;;;7.87;;
3054;SDS011;1537;52.018;8.542;2023-07-28T10:09:40;8.67;;;7.77;;
3054;SDS011;1537;52.018;8.542;2023-07-28T10:13:04;8.60;;;7.73;;
3054;SDS011;1537;52.018;8.542;2023-07-28T10:16:31;8.87;;;7.50;;
3054;SDS011;1537;52.018;8.542;2023-07-28T10:20:04;9.77;;;8.77;;
3054;SDS011;1537;52.018;8.542;2023-07-28T10:23:33;10.17;;;7.30;;
3054;SDS011;1537;52.018;8.542;2023-07-28T10:26:58;14.00;;;8.80;;
3054;SDS011;1537;52.018;8.542;2023-07-28T10:30:21;9.40;;;8.40;;
3054;SDS011;1537;52.018;8.542;2023-07-28T10:33:46;16.33;;;9.10;;
3054;SDS011;1537;52.018;8.542;2023-07-28T10:37:11;10.10;;;8.93;;
3054;SDS011;1537;52.018;8.542;2023-07-28T10:40:37;9.77;;;8.87;;
3054;SDS011;1537;52.018;8.542;2023-07-28T10:44:01;10.17;;;8.90;;
3054;SDS011;1537;52.018;8.542;2023-07-28T10:47:26;12.70;;;9.40;;
3054;SDS011;1537;52.018;8.542;2023-07-28T10:50:49;10.00;;;8.70;;
3054;SDS011;1537;52.018;8.542;2023-07-28T10:54:14;12.27;;;9.83;;
3054;SDS011;1537;52.018;8.542;2023-07-28T10:57:41;10.17;;;8.63;;
3054;SDS011;1537;52.018;8.542;2023-07-28T11:01:06;8.83;;;7.90;;
3054;SDS011;1537;52.018;8.542;2023-07-28T11:04:29;9.93;;;8.30;;
3054;SDS011;1537;52.018;8.542;2023-07-28T11:07:53;10.43;;;8.10;;
3054;SDS011;1537;52.018;8.542;2023-07-28T11:11:20;12.90;;;8.87;;
3054;SDS011;1537;52.018;8.542;2023-07-28T11:14:44;9.60;;;7.83;;
3054;SDS011;1537;52.018;8.542;2023-07-28T11:18:07;9.37;;;7.57;;
3054;SDS011;1537;52.018;8.542;2023-07-28T11:21:31;10.00;;;7.90;;
3054;SDS011;1537;52.018;8.542;2023-07-28T11:24:59;10.20;;;8.33;;
3054;SDS011;1537;52.018;8.542;2023-07-28T11:28:24;10.53;;;9.50;;
3054;SDS011;1537;52.018;8.542;2023-07-28T11:31:48;9.93;;;8.90;;
3054;SDS011;1537;52.018;8.542;2023-07-28T11:35:13;9.40;;;8.43;;
3054;SDS011;1537;52.018;8.542;2023-07-28T11:38:39;11.30;;;10.00;;
3054;SDS011;1537;52.018;8.542;2023-07-28T11:42:03;12.47;;;10.07;;
3054;SDS011;1537;52.018;8.542;2023-07-28T11:45:29;13.20;;;9.73;;
3054;SDS011;1537;52.018;8.542;2023-07-28T11:48:52;13.67;;;10.43;;
3054;SDS011;1537;52.018;8.542;2023-07-28T11:52:16;12.20;;;9.40;;
3054;SDS011;1537;52.018;8.542;2023-07-28T11:55:43;12.73;;;10.07;;
3054;SDS011;1537;52.018;8.542;2023-07-28T11:59:06;12.33;;;10.00;;
3054;SDS011;1537;52.018;8.542;2023-07-28T12:02:32;13.23;;;10.03;;
3054;SDS011;1537;52.018;8.542;2023-07-28T12:06:01;10.80;;;9.50;;
3054;SDS011;1537;52.018;8.542;2023-07-28T12:09:31;12.13;;;9.40;;
3054;SDS011;1537;52.018;8.542;2023-07-28T12:12:55;12.07;;;10.20;;
3054;SDS011;1537;52.018;8.542;2023-07-28T12:16:31;14.30;;;12.50;;
3054;SDS011;1537;52.018;8.542;2023-07-28T12:20:02;9.97;;;8.47;;
3054;SDS011;1537;52.018;8.542;2023-07-28T12:23:32;9.27;;;8.23;;
3054;SDS011;1537;52.018;8.542;2023-07-28T12:26:59;10.83;;;7.80;;
3054;SDS011;1537;52.018;8.542;2023-07-28T12:30:33;10.57;;;8.83;;
3054;SDS011;1537;52.018;8.542;2023-07-28T12:33:57;11.73;;;8.60;;
3054;SDS011;1537;52.018;8.542;2023-07-28T12:37:25;9.17;;;7.27;;
3054;SDS011;1537;52.018;8.542;2023-07-28T12:40:51;9.53;;;8.53;;
3054;SDS011;1537;52.018;8.542;2023-07-28T12:44:19;8.77;;;7.70;;
3054;SDS011;1537;52.018;8.542;2023-07-28T12:48:03;9.20;;;7.63;;
3054;SDS011;1537;52.018;8.542;2023-07-28T12:51:27;9.00;;;7.30;;
3054;SDS011;1537;52.018;8.542;2023-07-28T12:54:53;8.93;;;7.93;;
3054;SDS011;1537;52.018;8.542;2023-07-28T12:58:36;9.03;;;7.33;;
3054;SDS011;1537;52.018;8.542;2023-07-28T13:02:03;7.40;;;6.33;;
3054;SDS011;1537;52.018;8.542;2023-07-28T13:05:26;7.80;;;6.50;;
3054;SDS011;1537;52.018;8.542;2023-07-28T13:08:50;10.90;;;7.57;;
3054;SDS011;1537;52.018;8.542;2023-07-28T13:12:18;7.67;;;6.40;;
3054;SDS011;1537;52.018;8.542;2023-07-28T13:15:44;7.30;;;6.10;;
3054;SDS011;1537;52.018;8.542;2023-07-28T13:19:08;8.70;;;6.80;;
3054;SDS011;1537;52.018;8.542;2023-07-28T13:22:32;9.63;;;6.70;;
3054;SDS011;1537;52.018;8.542;2023-07-28T13:25:55;7.97;;;6.70;;
3054;SDS011;1537;52.018;8.542;2023-07-28T13:29:20;21.53;;;8.70;;
3054;SDS011;1537;52.018;8.542;2023-07-28T13:32:44;9.60;;;7.07;;
3054;SDS011;1537;52.018;8.542;2023-07-28T13:36:08;9.43;;;7.57;;
3054;SDS011;1537;52.018;8.542;2023-07-28T13:39:32;9.60;;;7.40;;
3054;SDS011;1537;52.018;8.542;2023-07-28T13:42:55;7.80;;;7.00;;
3054;SDS011;1537;52.018;8.542;2023-07-28T13:46:20;7.80;;;7.00;;
3054;SDS011;1537;52.018;8.542;2023-07-28T13:49:44;8.77;;;7.40;;
3054;SDS011;1537;52.018;8.542;2023-07-28T13:53:10;8.93;;;6.80;;
3054;SDS011;1537;52.018;8.542;2023-07-28T13:56:37;8.40;;;6.70;;
3054;SDS011;1537;52.018;8.542;2023-07-28T14:00:21;8.00;;;7.20;;
3054;SDS011;1537;52.018;8.542;2023-07-28T14:03:46;9.20;;;7.20;;
3054;SDS011;1537;52.018;8.542;2023-07-28T14:07:09;7.80;;;7.00;;
3054;SDS011;1537;52.018;8.542;2023-07-28T14:10:33;9.33;;;8.33;;
3054;SDS011;1537;52.018;8.542;2023-07-28T14:14:00;8.47;;;6.63;;
3054;SDS011;1537;52.018;8.542;2023-07-28T14:17:23;8.50;;;6.70;;
3054;SDS011;1537;52.018;8.542;2023-07-28T14:20:48;9.50;;;7.17;;
3054;SDS011;1537;52.018;8.542;2023-07-28T14:24:12;9.20;;;7.10;;
3054;SDS011;1537;52.018;8.542;2023-07-28T14:27:36;8.20;;;6.60;;
3054;SDS011;1537;52.018;8.542;2023-07-28T14:31:00;8.43;;;7.33;;
3054;SDS011;1537;52.018;8.542;2023-07-28T14:34:23;10.07;;;6.80;;
3054;SDS011;1537;52.018;8.542;2023-07-28T14:37:48;8.27;;;6.87;;
3054;SDS011;1537;52.018;8.542;2023-07-28T14:41:12;7.60;;;6.80;;
3054;SDS011;1537;52.018;8.542;2023-07-28T14:44:36;8.10;;;6.37;;
3054;SDS011;1537;52.018;8.542;2023-07-28T14:47:59;7.30;;;6.27;;
3054;SDS011;1537;52.018;8.542;2023-07-28T14:51:24;6.73;;;6.00;;
3054;SDS011;1537;52.018;8.542;2023-07-28T14:54:49;8.03;;;6.73;;
3054;SDS011;1537;52.018;8.542;2023-07-28T14:58:13;7.40;;;6.20;;
3054;SDS011;1537;52.018;8.542;2023-07-28T15:01:37;7.57;;;6.37;;
3054;SDS011;1537;52.018;8.542;2023-07-28T15:05:00;8.70;;;6.43;;
3054;SDS011;1537;52.018;8.542;2023-07-28T15:08:25;7.93;;;6.80;;
3054;SDS011;1537;52.018;8.542;2023-07-28T15:11:50;7.03;;;6.33;;
3054;SDS011;1537;52.018;8.542;2023-07-28T15:15:13;7.90;;;7.10;;
3054;SDS011;1537;52.018;8.542;2023-07-28T15:18:37;8.03;;;7.17;;
3054;SDS011;1537;52.018;8.542;2023-07-28T15:22:01;7.70;;;6.90;;
3054;SDS011;1537;52.018;8.542;2023-07-28T15:25:24;7.37;;;6.67;;
3054;SDS011;1537;52.018;8.542;2023-07-28T15:28:49;8.03;;;7.20;;
3054;SDS011;1537;52.018;8.542;2023-07-28T15:32:13;7.83;;;6.93;;
3054;SDS011;1537;52.018;8.542;2023-07-28T15:35:37;9.33;;;8.00;;
3054;SDS011;1537;52.018;8.542;2023-07-28T15:39:00;8.17;;;7.10;;
3054;SDS011;1537;52.018;8.542;2023-07-28T15:42:24;8.37;;;6.50;;
3054;SDS011;1537;52.018;8.542;2023-07-28T15:45:50;7.87;;;6.27;;
3054;SDS011;1537;52.018;8.542;2023-07-28T15:49:16;7.63;;;6.87;;
3054;SDS011;1537;52.018;8.542;2023-07-28T15:52:40;6.50;;;5.80;;
3054;SDS011;1537;52.018;8.542;2023-07-28T15:56:04;6.43;;;5.30;;
3054;SDS011;1537;52.018;8.542;2023-07-28T15:59:28;7.50;;;4.50;;
3054;SDS011;1537;52.018;8.542;2023-07-28T16:02:54;6.30;;;4.83;;
3054;SDS011;1537;52.018;8.542;2023-07-28T16:06:18;6.53;;;4.20;;
3054;SDS011;1537;52.018;8.542;2023-07-28T16:09:41;6.20;;;4.13;;
3054;SDS011;1537;52.018;8.542;2023-07-28T16:13:06;6.80;;;5.40;;
3054;SDS011;1537;52.018;8.542;2023-07-28T16:16:29;5.60;;;4.73;;
3054;SDS011;1537;52.018;8.542;2023-07-28T16:19:54;5.87;;;4.87;;
3054;SDS011;1537;52.018;8.542;2023-07-28T16:23:19;5.73;;;4.80;;
3054;SDS011;1537;52.018;8.542;2023-07-28T16:26:43;6.27;;;4.87;;
3054;SDS011;1537;52.018;8.542;2023-07-28T16:30:07;6.30;;;5.30;;
3054;SDS011;1537;52.018;8.542;2023-07-28T16:33:32;6.17;;;5.30;;
3054;SDS011;1537;52.018;8.542;2023-07-28T16:36:57;6.40;;;5.10;;
3054;SDS011;1537;52.018;8.542;2023-07-28T16:40:20;6.67;;;4.90;;
3054;SDS011;1537;52.018;8.542;2023-07-28T16:43:44;6.60;;;5.00;;
3054;SDS011;1537;52.018;8.542;2023-07-28T16:47:08;6.17;;;4.63;;
3054;SDS011;1537;52.018;8.542;2023-07-28T16:50:31;5.43;;;3.97;;
3054;SDS011;1537;52.018;8.542;2023-07-28T16:53:56;6.90;;;4.27;;
3054;SDS011;1537;52.018;8.542;2023-07-28T16:57:20;6.20;;;4.60;;
3054;SDS011;1537;52.018;8.542;2023-07-28T17:00:44;6.43;;;4.70;;
3054;SDS011;1537;52.018;8.542;2023-07-28T17:04:08;6.43;;;5.73;;
3054;SDS011;1537;52.018;8.542;2023-07-28T17:07:31;6.30;;;5.03;;
3054;SDS011;1537;52.018;8.542;2023-07-28T17:10:56;6.47;;;4.97;;
3054;SDS011;1537;52.018;8.542;2023-07-28T17:14:20;6.67;;;5.03;;
3054;SDS011;1537;52.018;8.542;2023-07-28T17:17:43;5.90;;;5.03;;
3054;SDS011;1537;52.018;8.542;2023-07-28T17:21:07;6.23;;;5.00;;
3054;SDS011;1537;52.018;8.542;2023-07-28T17:24:31;6.90;;;5.17;;
3054;SDS011;1537;52.018;8.542;2023-07-28T17:27:56;7.40;;;5.40;;
3054;SDS011;1537;52.018;8.542;2023-07-28T17:31:20;6.80;;;5.20;;
3054;SDS011;1537;52.018;8.542;2023-07-28T17:34:44;5.30;;;4.30;;
3054;SDS011;1537;52.018;8.542;2023-07-28T17:38:07;6.80;;;4.40;;
3054;SDS011;1537;52.018;8.542;2023-07-28T17:41:31;6.10;;;4.97;;
3054;SDS011;1537;52.018;8.542;2023-07-28T17:44:56;7.10;;;4.50;;
3054;SDS011;1537;52.018;8.542;2023-07-28T17:48:22;5.77;;;4.70;;
3054;SDS011;1537;52.018;8.542;2023-07-28T17:51:47;5.50;;;4.40;;
3054;SDS011;1537;52.018;8.542;2023-07-28T17:55:11;6.67;;;4.67;;
3054;SDS011;1537;52.018;8.542;2023-07-28T17:58:35;5.57;;;4.17;;
3054;SDS011;1537;52.018;8.542;2023-07-28T18:02:00;6.33;;;4.27;;
3054;SDS011;1537;52.018;8.542;2023-07-28T18:05:25;6.23;;;4.00;;
3054;SDS011;1537;52.018;8.542;2023-07-28T18:08:48;6.70;;;4.73;;
3054;SDS011;1537;52.018;8.542;2023-07-28T18:12:12;5.20;;;4.20;;
3054;SDS011;1537;52.018;8.542;2023-07-28T18:15:36;6.60;;;4.30;;
3054;SDS011;1537;52.018;8.542;2023-07-28T18:19:01;5.87;;;4.20;;
3054;SDS011;1537;52.018;8.542;2023-07-28T18:22:24;6.67;;;4.73;;
3054;SDS011;1537;52.018;8.542;2023-07-28T18:25:48;5.90;;;4.70;;
3054;SDS011;1537;52.018;8.542;2023-07-28T18:29:11;6.53;;;4.67;;
3054;SDS011;1537;52.018;8.542;2023-07-28T18:32:35;5.47;;;4.73;;
3054;SDS011;1537;52.018;8.542;2023-07-28T18:36:00;5.80;;;4.27;;
3054;SDS011;1537;52.018;8.542;2023-07-28T18:39:23;6.30;;;4.67;;
3054;SDS011;1537;52.018;8.542;2023-07-28T18:42:47;8.00;;;4.97;;
3054;SDS011;1537;52.018;8.542;2023-07-28T18:46:11;6.07;;;4.00;;
3054;SDS011;1537;52.018;8.542;2023-07-28T18:49:34;4.93;;;4.13;;
3054;SDS011;1537;52.018;8.542;2023-07-28T18:52:59;5.30;;;3.97;;
3054;SDS011;1537;52.018;8.542;2023-07-28T18:56:23;5.40;;;3.33;;
3054;SDS011;1537;52.018;8.542;2023-07-28T18:59:47;5.70;;;3.70;;
3054;SDS011;1537;52.018;8.542;2023-07-28T19:03:10;6.40;;;4.03;;
3054;SDS011;1537;52.018;8.542;2023-07-28T19:06:35;5.27;;;3.13;;
3054;SDS011;1537;52.018;8.542;2023-07-28T19:10:00;5.43;;;4.00;;
3054;SDS011;1537;52.018;8.542;2023-07-28T19:13:25;6.23;;;3.27;;
3054;SDS011;1537;52.018;8.542;2023-07-28T19:16:49;4.50;;;3.27;;
3054;SDS011;1537;52.018;8.542;2023-07-28T19:20:13;4.93;;;3.00;;
3054;SDS011;1537;52.018;8.542;2023-07-28T19:23:41;4.90;;;3.00;;
3054;SDS011;1537;52.018;8.542;2023-07-28T19:27:06;4.70;;;2.80;;
3054;SDS011;1537;52.018;8.542;2023-07-28T19:30:31;4.60;;;2.80;;
3054;SDS011;1537;52.018;8.542;2023-07-28T19:33:54;4.97;;;2.67;;
3054;SDS011;1537;52.018;8.542;2023-07-28T19:37:18;6.90;;;3.37;;
3054;SDS011;1537;52.018;8.542;2023-07-28T19:41:01;5.20;;;3.23;;
3054;SDS011;1537;52.018;8.542;2023-07-28T19:44:26;5.00;;;2.90;;
3054;SDS011;1537;52.018;8.542;2023-07-28T19:48:03;5.10;;;3.20;;
3054;SDS011;1537;52.018;8.542;2023-07-28T19:51:27;4.53;;;2.63;;
3054;SDS011;1537;52.018;8.542;2023-07-28T19:54:51;4.77;;;3.07;;
3054;SDS011;1537;52.018;8.542;2023-07-28T19:58:14;4.97;;;2.77;;
3054;SDS011;1537;52.018;8.542;2023-07-28T20:01:39;4.70;;;2.70;;
3054;SDS011;1537;52.018;8.542;2023-07-28T20:05:03;5.40;;;3.00;;
3054;SDS011;1537;52.018;8.542;2023-07-28T20:08:27;4.40;;;2.40;;
3054;SDS011;1537;52.018;8.542;2023-07-28T20:11:51;4.83;;;2.67;;
3054;SDS011;1537;52.018;8.542;2023-07-28T20:15:15;6.27;;;2.70;;
3054;SDS011;1537;52.018;8.542;2023-07-28T20:18:40;4.47;;;2.30;;
3054;SDS011;1537;52.018;8.542;2023-07-28T20:22:08;4.20;;;2.23;;
3054;SDS011;1537;52.018;8.542;2023-07-28T20:25:32;4.47;;;2.70;;
3054;SDS011;1537;52.018;8.542;2023-07-28T20:28:56;6.57;;;2.47;;
3054;SDS011;1537;52.018;8.542;2023-07-28T20:32:20;5.00;;;2.03;;
3054;SDS011;1537;52.018;8.542;2023-07-28T20:35:49;4.10;;;1.77;;
3054;SDS011;1537;52.018;8.542;2023-07-28T20:39:13;7.80;;;2.37;;
3054;SDS011;1537;52.018;8.542;2023-07-28T20:42:37;4.80;;;2.00;;
3054;SDS011;1537;52.018;8.542;2023-07-28T20:46:00;5.40;;;2.20;;
3054;SDS011;1537;52.018;8.542;2023-07-28T20:49:24;4.33;;;2.00;;
3054;SDS011;1537;52.018;8.542;2023-07-28T20:52:49;5.90;;;2.37;;
3054;SDS011;1537;52.018;8.542;2023-07-28T20:56:13;4.60;;;2.07;;
3054;SDS011;1537;52.018;8.542;2023-07-28T20:59:36;4.50;;;1.83;;